Terminal Aerodrome Forecast
Issued by NWS Atlanta, GA

Home | Current Version | Previous Version | Text Only | Print | Product List | Glossary On
Versions: 1 2 3 4 5 6 7 8 9 10 11 12 13 14 15 16 17 18 19 20
000
FTUS42 KFFC 232210 AAD
TAFCSG
TAF AMD
KCSG 232210Z 2322/2418 25010G18KT 6SM -SHRA BR BKN040
     FM240200 19009KT 4SM BR OVC007
     FM241500 24010KT P6SM SCT020=

USA.gov is the U.S. government's official web portal to all federal, state and local government web resources and services.